Time;durP1;ratioP1;P1;durP2;ratioP2;P2;SDS_P1;SDS_P2;PMS_P1;PMS_P2;Temp;Humidity;BMP_temperature;BMP_pressure;BME280_temperature;BME280_humidity;BME280_pressure;Samples;Min_cycle;Max_cycle;Signal;HPM_P1;HPM_P2
2021/03/20 00:02:06;;;;;;;6.23;5.63;;;6.40;90.70;;;;;;5092658;28;20255;-73
2021/03/20 00:04:31;;;;;;;6.23;5.63;;;6.50;90.60;;;;;;5093630;28;20644;-73
2021/03/20 00:06:57;;;;;;;6.63;5.60;;;6.50;90.40;;;;;;5092798;28;20288;-73
2021/03/20 00:09:27;;;;;;;7.13;5.43;;;6.60;90.20;;;;;;5093532;28;20218;-73
2021/03/20 00:11:55;;;;;;;6.20;5.70;;;6.60;90.20;;;;;;5092765;28;20450;-72
2021/03/20 00:14:23;;;;;;;5.82;5.32;;;6.60;89.90;;;;;;5093415;28;20251;-72
2021/03/20 00:16:49;;;;;;;5.80;5.28;;;6.60;89.20;;;;;;5093293;28;20178;-73
2021/03/20 00:19:16;;;;;;;5.30;4.80;;;6.60;88.20;;;;;;5075041;28;20187;-73
2021/03/20 00:21:42;;;;;;;4.45;4.15;;;6.40;86.50;;;;;;5093282;28;20556;-72
2021/03/20 00:24:08;;;;;;;7.03;4.10;;;6.40;86.60;;;;;;5092518;28;20521;-73
2021/03/20 00:26:34;;;;;;;3.72;3.42;;;6.40;85.00;;;;;;5093049;28;20221;-73
2021/03/20 00:29:00;;;;;;;3.80;3.50;;;6.40;84.10;;;;;;5092472;28;20177;-73
2021/03/20 00:31:26;;;;;;;3.88;3.58;;;6.40;83.50;;;;;;5093475;28;20199;-72
2021/03/20 00:33:52;;;;;;;5.10;4.30;;;6.40;82.70;;;;;;5092534;28;20643;-72
2021/03/20 00:36:19;;;;;;;4.97;4.57;;;6.40;82.70;;;;;;5075266;28;20172;-73
2021/03/20 00:38:44;;;;;;;4.40;4.05;;;6.40;82.60;;;;;;5092750;28;20168;-73
2021/03/20 00:41:10;;;;;;;4.37;3.97;;;6.40;82.30;;;;;;5074247;28;20268;-73
2021/03/20 00:43:37;;;;;;;4.60;4.20;;;6.40;82.80;;;;;;5092984;28;20169;-73
2021/03/20 00:46:04;;;;;;;4.60;4.20;;;6.40;83.30;;;;;;5092168;28;20450;-73
2021/03/20 00:48:34;;;;;;;5.53;4.50;;;6.40;83.40;;;;;;5092846;28;20279;-72
2021/03/20 00:51:02;;;;;;;4.95;4.20;;;6.40;83.80;;;;;;5091039;28;20200;-73
2021/03/20 00:53:29;;;;;;;4.10;3.70;;;6.30;83.30;;;;;;5092476;28;20175;-73
2021/03/20 00:55:55;;;;;;;4.10;3.80;;;6.30;83.30;;;;;;5092133;28;20178;-72
2021/03/20 00:58:37;;;;;;;4.18;3.78;;;6.30;83.50;;;;;;5092726;28;20407;-72
2021/03/20 01:01:06;;;;;;;4.70;4.25;;;6.20;84.30;;;;;;5092176;28;20167;-73
2021/03/20 01:03:33;;;;;;;6.20;4.97;;;6.20;85.00;;;;;;5092510;28;20672;-72
2021/03/20 01:05:59;;;;;;;4.10;3.80;;;6.10;84.80;;;;;;5092069;28;20173;-73
2021/03/20 01:08:25;;;;;;;5.10;4.70;;;6.10;85.30;;;;;;5092681;28;20196;-72
2021/03/20 01:10:52;;;;;;;5.40;5.00;;;6.10;84.50;;;;;;5092691;28;20229;-73
2021/03/20 01:13:19;;;;;;;4.20;3.90;;;6.10;84.00;;;;;;5092638;28;20405;-73
2021/03/20 01:15:45;;;;;;;5.75;5.25;;;6.20;83.20;;;;;;5092607;28;20506;-72
2021/03/20 01:18:12;;;;;;;4.97;4.57;;;6.20;82.60;;;;;;5091990;28;20168;-73
2021/03/20 01:20:38;;;;;;;4.32;4.03;;;6.10;82.00;;;;;;5092510;28;20191;-72
2021/03/20 01:23:05;;;;;;;4.95;4.45;;;6.10;80.80;;;;;;5091933;28;20214;-73
2021/03/20 01:25:32;;;;;;;5.22;4.72;;;6.10;80.50;;;;;;5092513;28;20636;-73
2021/03/20 01:27:58;;;;;;;4.15;3.85;;;6.10;81.10;;;;;;5091519;28;20200;-72
2021/03/20 01:30:27;;;;;;;4.33;4.03;;;6.00;82.00;;;;;;5092206;28;20630;-73
2021/03/20 01:32:53;;;;;;;4.97;4.60;;;5.90;81.10;;;;;;5092382;28;20411;-72
2021/03/20 01:35:20;;;;;;;5.50;5.10;;;5.80;80.90;;;;;;5092483;28;20160;-73
2021/03/20 01:37:46;;;;;;;5.30;4.80;;;5.90;81.20;;;;;;5092641;28;20181;-72
2021/03/20 01:40:14;;;;;;;5.10;4.60;;;5.90;80.70;;;;;;5091733;28;20164;-73
2021/03/20 01:42:44;;;;;;;5.00;4.50;;;5.80;80.10;;;;;;5074180;28;20175;-72
2021/03/20 01:45:21;;;;;;;4.32;3.92;;;5.90;79.80;;;;;;5073378;28;20169;-73
2021/03/20 01:48:11;;;;;;;5.25;4.75;;;5.90;79.30;;;;;;5091825;28;20220;-73
2021/03/20 01:50:58;;;;;;;5.75;3.80;;;5.80;79.10;;;;;;5091984;28;20157;-73
2021/03/20 01:53:38;;;;;;;4.15;3.75;;;5.90;77.90;;;;;;5092287;28;20499;-72
2021/03/20 01:56:10;;;;;;;4.60;4.20;;;5.80;77.60;;;;;;5091681;28;20180;-72
2021/03/20 01:58:38;;;;;;;4.72;4.30;;;5.80;78.60;;;;;;5092156;28;20169;-72
2021/03/20 02:01:11;;;;;;;4.35;3.97;;;5.80;79.40;;;;;;5091569;28;20175;-73
2021/03/20 02:03:38;;;;;;;3.92;3.63;;;5.70;79.40;;;;;;5095354;28;20148;-72
2021/03/20 02:06:05;;;;;;;3.95;3.65;;;5.70;79.30;;;;;;5095198;28;20260;-73
2021/03/20 02:08:31;;;;;;;5.07;4.28;;;5.70;79.10;;;;;;5095737;28;20231;-73
2021/03/20 02:11:27;;;;;;;5.18;4.20;;;5.60;78.80;;;;;;5095097;28;20164;-72
2021/03/20 02:14:10;;;;;;;4.45;4.15;;;5.60;79.50;;;;;;5090420;28;20237;-72
2021/03/20 02:16:52;;;;;;;5.30;4.90;;;5.50;80.30;;;;;;5096156;28;20534;-72
2021/03/20 02:19:44;;;;;;;4.95;4.53;;;5.40;80.60;;;;;;5095052;28;20240;-73
2021/03/20 02:22:21;;;;;;;4.45;4.07;;;5.40;80.60;;;;;;5094903;28;20180;-72
2021/03/20 02:25:08;;;;;;;5.03;4.50;;;5.40;80.10;;;;;;5095634;28;20600;-72
2021/03/20 02:28:27;;;;;;;4.78;4.25;;;5.40;80.50;;;;;;5095469;28;20618;-72
2021/03/20 02:30:56;;;;;;;5.15;4.75;;;5.30;81.40;;;;;;4993500;28;20179;-73
2021/03/20 02:33:47;;;;;;;5.25;4.75;;;5.30;81.60;;;;;;5088048;28;20195;-73
2021/03/20 02:36:24;;;;;;;5.05;4.65;;;5.20;82.00;;;;;;5094743;28;20161;-72
2021/03/20 02:38:58;;;;;;;5.45;4.95;;;5.20;82.50;;;;;;5095193;28;20377;-72
2021/03/20 02:41:42;;;;;;;5.28;4.88;;;5.10;82.90;;;;;;5095194;28;20497;-72
2021/03/20 02:44:39;;;;;;;5.18;4.68;;;5.00;83.10;;;;;;5094582;28;20164;-72
2021/03/20 02:47:09;;;;;;;4.68;4.38;;;5.00;83.50;;;;;;5089449;28;20660;-72
2021/03/20 02:49:46;;;;;;;6.13;4.75;;;4.90;83.60;;;;;;5094974;28;20221;-72
2021/03/20 02:52:14;;;;;;;4.50;4.18;;;4.80;83.80;;;;;;5094418;28;20250;-72
2021/03/20 02:55:02;;;;;;;5.57;4.40;;;4.50;84.30;;;;;;5094870;28;20208;-72
2021/03/20 02:57:47;;;;;;;5.40;4.45;;;4.50;85.00;;;;;;5094704;28;20525;-72
2021/03/20 03:00:25;;;;;;;4.70;4.30;;;4.50;85.10;;;;;;5094062;28;20478;-73
2021/03/20 03:02:53;;;;;;;6.70;4.80;;;4.50;85.10;;;;;;5094929;28;20493;-72
2021/03/20 03:05:30;;;;;;;5.07;4.30;;;4.40;85.10;;;;;;5093745;28;20644;-75
2021/03/20 03:08:04;;;;;;;4.82;4.40;;;4.40;85.00;;;;;;5094593;28;20199;-74
2021/03/20 03:10:35;;;;;;;4.20;3.90;;;4.40;84.50;;;;;;5094285;28;20221;-72
2021/03/20 03:13:21;;;;;;;5.38;4.57;;;4.40;84.50;;;;;;5093820;28;20597;-73
2021/03/20 03:15:57;;;;;;;4.70;4.35;;;4.30;84.30;;;;;;5094371;28;20251;-72
2021/03/20 03:18:25;;;;;;;5.28;4.35;;;4.20;84.30;;;;;;5075776;28;20622;-72
2021/03/20 03:20:56;;;;;;;4.60;4.20;;;4.20;84.30;;;;;;5094410;28;20175;-72
2021/03/20 03:23:25;;;;;;;5.07;4.60;;;4.20;84.60;;;;;;5093819;28;20251;-73
2021/03/20 03:26:00;;;;;;;4.70;4.18;;;4.20;84.90;;;;;;5094265;28;20176;-72
2021/03/20 03:28:28;;;;;;;5.40;4.90;;;4.30;84.20;;;;;;5093912;28;20195;-72
2021/03/20 03:30:57;;;;;;;5.57;5.07;;;4.40;84.80;;;;;;5094167;28;20514;-72
2021/03/20 03:33:28;;;;;;;5.90;5.40;;;4.40;84.50;;;;;;5093566;28;20488;-72
2021/03/20 03:36:06;;;;;;;4.97;4.30;;;4.50;84.60;;;;;;5093798;28;20628;-72
2021/03/20 03:38:43;;;;;;;4.00;3.70;;;4.40;83.80;;;;;;5094224;28;20164;-72
2021/03/20 03:41:18;;;;;;;4.28;3.70;;;4.30;83.40;;;;;;5093396;28;20169;-73
2021/03/20 03:43:44;;;;;;;5.00;4.60;;;4.20;84.00;;;;;;5093924;28;20155;-73
2021/03/20 03:46:12;;;;;;;4.95;4.47;;;4.20;83.80;;;;;;5093190;28;20250;-72
2021/03/20 03:48:37;;;;;;;3.95;3.58;;;4.10;83.60;;;;;;5093895;28;20297;-72
2021/03/20 03:51:17;;;;;;;4.73;4.33;;;4.10;84.30;;;;;;5093219;28;20200;-72
2021/03/20 03:53:43;;;;;;;4.40;4.10;;;3.90;84.10;;;;;;5093885;28;20431;-73
2021/03/20 03:56:27;;;;;;;4.43;4.05;;;4.00;84.60;;;;;;5093146;28;20174;-72
2021/03/20 03:59:24;;;;;;;4.07;3.78;;;4.10;84.70;;;;;;5093707;28;20236;-72
2021/03/20 04:01:58;;;;;;;4.05;3.75;;;4.00;84.80;;;;;;5093568;28;20167;-72
2021/03/20 04:04:40;;;;;;;4.13;3.80;;;3.90;84.70;;;;;;5093077;28;20209;-72
2021/03/20 04:07:20;;;;;;;3.85;3.65;;;3.90;84.90;;;;;;5092796;28;20545;-72
2021/03/20 04:10:25;;;;;;;4.00;3.70;;;4.00;84.50;;;;;;5093445;28;20167;-72
2021/03/20 04:12:55;;;;;;;4.60;4.20;;;4.00;84.40;;;;;;5079664;28;20233;-72
2021/03/20 04:15:33;;;;;;;6.10;4.95;;;4.10;84.40;;;;;;5092857;28;20185;-73
2021/03/20 04:18:07;;;;;;;4.38;3.97;;;4.20;84.40;;;;;;5093333;28;20209;-72
2021/03/20 04:20:54;;;;;;;4.00;3.70;;;4.20;83.30;;;;;;5093055;28;20177;-73
2021/03/20 04:23:31;;;;;;;4.80;4.30;;;4.20;83.70;;;;;;5074712;28;20492;-73
2021/03/20 04:26:04;;;;;;;4.95;4.47;;;4.30;83.40;;;;;;5092981;28;20507;-72
2021/03/20 04:28:55;;;;;;;4.10;3.83;;;4.40;82.90;;;;;;5093281;28;20540;-72
2021/03/20 04:31:34;;;;;;;5.50;4.95;;;4.40;82.60;;;;;;5092600;28;20176;-72
2021/03/20 04:34:14;;;;;;;5.03;4.60;;;4.40;82.80;;;;;;5093130;28;20164;-72
2021/03/20 04:37:16;;;;;;;5.20;4.70;;;4.40;82.80;;;;;;5093083;28;20166;-72
2021/03/20 04:39:45;;;;;;;4.95;4.65;;;4.40;82.80;;;;;;5071174;28;20218;-72
2021/03/20 04:42:13;;;;;;;7.55;5.00;;;4.40;82.80;;;;;;5092603;28;20164;-73
2021/03/20 04:44:40;;;;;;;4.82;4.40;;;4.50;82.60;;;;;;5074912;28;20623;-73
2021/03/20 04:47:15;;;;;;;4.40;4.10;;;4.50;82.60;;;;;;5092652;28;20230;-72
2021/03/20 04:49:49;;;;;;;5.22;4.82;;;4.50;81.90;;;;;;5092899;28;20250;-72
2021/03/20 04:52:21;;;;;;;4.90;4.60;;;4.60;82.30;;;;;;5092024;28;20631;-72
2021/03/20 04:54:47;;;;;;;5.22;4.40;;;4.60;81.80;;;;;;5093144;28;20163;-72
2021/03/20 04:57:25;;;;;;;5.10;4.70;;;4.50;81.10;;;;;;5092224;28;20188;-72
2021/03/20 05:00:04;;;;;;;4.70;4.30;;;4.50;80.10;;;;;;5092856;28;20163;-72
2021/03/20 05:02:49;;;;;;;4.50;4.20;;;4.50;80.40;;;;;;5074184;28;20226;-72
2021/03/20 05:05:24;;;;;;;4.60;4.20;;;4.50;80.60;;;;;;5091857;28;20178;-73
2021/03/20 05:07:52;;;;;;;4.45;4.05;;;4.50;80.40;;;;;;5092771;28;20207;-72
2021/03/20 05:10:41;;;;;;;4.05;3.75;;;4.50;80.10;;;;;;5091743;28;20676;-73
2021/03/20 05:13:24;;;;;;;8.32;3.95;;;4.50;79.80;;;;;;5091412;28;20188;-72
2021/03/20 05:15:56;;;;;;;4.30;4.00;;;4.50;80.20;;;;;;5092584;28;20680;-72
2021/03/20 05:18:21;;;;;;;5.50;5.10;;;4.50;81.90;;;;;;5092049;28;20218;-72
2021/03/20 05:20:47;;;;;;;5.47;4.50;;;4.50;82.70;;;;;;5074712;28;20233;-73
2021/03/20 05:23:13;;;;;;;4.73;4.27;;;4.50;82.10;;;;;;5091867;28;20251;-73
2021/03/20 05:25:39;;;;;;;4.50;4.20;;;4.50;81.60;;;;;;5092499;28;20255;-73
2021/03/20 05:28:04;;;;;;;4.67;4.27;;;4.60;82.60;;;;;;5092478;28;20227;-73
2021/03/20 05:30:30;;;;;;;4.70;4.30;;;4.50;82.90;;;;;;5091821;28;20178;-73
2021/03/20 05:32:56;;;;;;;4.63;4.23;;;4.50;82.10;;;;;;5092381;28;20180;-73
2021/03/20 05:35:25;;;;;;;4.60;4.30;;;4.50;81.80;;;;;;5091957;28;20176;-73
2021/03/20 05:37:52;;;;;;;4.75;4.35;;;4.50;81.10;;;;;;5094709;28;20215;-73
2021/03/20 05:40:27;;;;;;;4.90;4.57;;;4.60;81.10;;;;;;5095709;28;20599;-73
2021/03/20 05:42:58;;;;;;;5.13;4.57;;;4.60;81.00;;;;;;5096424;28;20258;-73
2021/03/20 05:45:35;;;;;;;5.13;4.63;;;4.60;81.10;;;;;;5095632;28;20238;-73
2021/03/20 05:48:13;;;;;;;4.35;4.00;;;4.60;81.20;;;;;;5096178;28;20658;-73
2021/03/20 05:50:51;;;;;;;4.65;4.20;;;4.60;80.90;;;;;;5096156;28;20229;-73
2021/03/20 05:53:38;;;;;;;5.20;4.20;;;4.60;81.20;;;;;;5095500;28;20503;-73
2021/03/20 05:56:19;;;;;;;3.97;3.65;;;4.50;81.30;;;;;;5096047;28;20163;-73
2021/03/20 05:58:49;;;;;;;4.55;4.25;;;4.50;81.90;;;;;;5096056;28;20248;-73
2021/03/20 06:01:24;;;;;;;4.95;4.50;;;4.40;82.70;;;;;;5095262;28;20169;-73
2021/03/20 06:03:59;;;;;;;4.68;4.32;;;4.40;82.00;;;;;;5095754;28;20174;-73
2021/03/20 06:06:42;;;;;;;4.88;4.57;;;4.50;81.80;;;;;;5077161;28;20173;-73
2021/03/20 06:09:13;;;;;;;6.40;5.10;;;4.40;82.00;;;;;;5095531;28;20212;-73
2021/03/20 06:12:14;;;;;;;4.60;4.22;;;4.50;82.60;;;;;;5095625;28;20607;-73
2021/03/20 06:14:51;;;;;;;5.40;4.78;;;4.40;82.90;;;;;;5090625;28;20188;-73
2021/03/20 06:17:41;;;;;;;6.55;5.35;;;4.40;83.40;;;;;;5095035;28;20299;-73
2021/03/20 06:20:26;;;;;;;5.22;4.45;;;4.30;82.20;;;;;;5095547;28;20182;-73
2021/03/20 06:23:29;;;;;;;6.32;4.45;;;4.30;81.90;;;;;;5095521;28;20175;-73
2021/03/20 06:26:19;;;;;;;5.20;4.70;;;4.30;81.00;;;;;;5095440;28;20172;-73
2021/03/20 06:28:58;;;;;;;5.28;4.43;;;4.00;81.20;;;;;;5095341;28;20293;-73
2021/03/20 06:31:28;;;;;;;4.70;4.35;;;4.00;82.10;;;;;;5094802;28;20172;-73
2021/03/20 06:34:00;;;;;;;4.50;4.15;;;4.20;82.40;;;;;;5095073;28;20174;-73
2021/03/20 06:36:49;;;;;;;4.85;4.50;;;4.20;82.40;;;;;;5076561;28;20600;-73
2021/03/20 06:39:31;;;;;;;5.25;4.60;;;4.30;81.90;;;;;;5094583;28;20239;-73
2021/03/20 06:42:03;;;;;;;4.55;4.25;;;4.40;81.50;;;;;;5095259;28;20612;-73
2021/03/20 06:44:37;;;;;;;5.32;4.82;;;4.40;81.70;;;;;;5094528;28;20164;-73
2021/03/20 06:47:20;;;;;;;5.07;4.65;;;4.40;81.70;;;;;;5076805;28;20691;-73
2021/03/20 06:50:22;;;;;;;4.97;4.57;;;4.40;81.90;;;;;;5093882;28;20156;-73
2021/03/20 06:52:55;;;;;;;4.60;4.20;;;4.50;81.40;;;;;;5094948;28;20222;-73
2021/03/20 06:55:36;;;;;;;5.93;5.43;;;4.40;81.80;;;;;;5094357;28;20181;-73
2021/03/20 06:58:39;;;;;;;4.82;4.43;;;4.40;82.10;;;;;;5095033;28;20160;-73
2021/03/20 07:01:24;;;;;;;5.07;4.65;;;4.50;82.00;;;;;;5089541;28;20187;-73
2021/03/20 07:03:56;;;;;;;5.03;4.63;;;4.50;81.50;;;;;;5094825;28;20643;-73
2021/03/20 07:06:47;;;;;;;4.85;4.45;;;4.40;81.50;;;;;;5094071;28;20165;-73
2021/03/20 07:09:14;;;;;;;5.40;4.80;;;4.40;81.30;;;;;;5094682;28;20223;-73
2021/03/20 07:12:02;;;;;;;5.40;5.00;;;4.50;81.50;;;;;;5094673;28;20560;-73
2021/03/20 07:14:44;;;;;;;5.43;5.03;;;4.60;82.10;;;;;;5093925;28;20153;-74
2021/03/20 07:17:22;;;;;;;5.15;4.32;;;4.70;81.80;;;;;;5094525;28;20254;-74
2021/03/20 07:19:57;;;;;;;4.95;4.65;;;4.80;81.00;;;;;;5094417;28;20168;-74
2021/03/20 07:22:46;;;;;;;6.00;5.40;;;4.90;81.70;;;;;;5093694;28;20172;-73
2021/03/20 07:25:37;;;;;;;6.90;6.30;;;5.00;81.60;;;;;;5094334;28;20171;-73
2021/03/20 07:28:22;;;;;;;6.90;6.30;;;5.00;83.60;;;;;;5076188;28;20192;-73
2021/03/20 07:31:10;;;;;;;8.02;5.80;;;4.80;84.60;;;;;;5094294;28;20164;-74
2021/03/20 07:33:58;;;;;;;6.70;5.55;;;4.90;85.10;;;;;;5093237;28;20480;-74
2021/03/20 07:36:37;;;;;;;6.15;5.55;;;4.90;85.10;;;;;;5091195;28;20191;-74
2021/03/20 07:39:18;;;;;;;8.75;5.63;;;4.90;85.20;;;;;;5094003;28;20184;-74
2021/03/20 07:41:48;;;;;;;7.82;5.60;;;5.00;85.20;;;;;;5094277;28;20489;-74
2021/03/20 07:44:14;;;;;;;5.50;5.00;;;5.10;85.00;;;;;;5094345;28;20153;-74
2021/03/20 07:46:40;;;;;;;6.40;5.03;;;5.30;83.60;;;;;;5092927;28;20215;-74
2021/03/20 07:49:20;;;;;;;5.30;4.90;;;5.40;82.80;;;;;;5075304;28;20180;-74
2021/03/20 07:52:01;;;;;;;5.68;5.13;;;5.60;81.60;;;;;;5093909;28;20164;-74
2021/03/20 07:54:34;;;;;;;6.07;5.63;;;5.70;80.70;;;;;;5093167;28;20157;-74
2021/03/20 07:57:12;;;;;;;5.78;5.28;;;5.80;81.00;;;;;;5093653;28;20157;-74
2021/03/20 07:59:52;;;;;;;5.13;4.60;;;5.90;80.90;;;;;;5092751;28;20169;-74
2021/03/20 08:02:40;;;;;;;6.18;5.50;;;5.90;81.00;;;;;;5093081;28;20230;-74
2021/03/20 08:05:28;;;;;;;5.35;4.85;;;5.90;78.80;;;;;;5093401;28;20165;-73
2021/03/20 08:07:54;;;;;;;5.47;4.97;;;6.00;78.10;;;;;;5092599;28;20319;-75
2021/03/20 08:10:29;;;;;;;5.60;5.10;;;5.70;78.10;;;;;;5092945;28;20495;-75
2021/03/20 08:13:12;;;;;;;5.18;4.68;;;5.90;79.00;;;;;;5093577;28;20168;-74
2021/03/20 08:16:00;;;;;;;10.45;5.32;;;6.00;79.30;;;;;;5092818;28;20843;-74
2021/03/20 08:18:33;;;;;;;6.70;5.32;;;6.10;80.10;;;;;;5091933;28;20193;-74
2021/03/20 08:20:59;;;;;;;5.97;5.50;;;6.20;78.50;;;;;;5075255;28;20160;-74
2021/03/20 08:24:02;;;;;;;5.37;4.90;;;6.40;78.50;;;;;;5092859;28;20737;-74
2021/03/20 08:26:27;;;;;;;4.50;4.20;;;6.50;78.90;;;;;;5074697;28;20219;-75
2021/03/20 08:28:58;;;;;;;5.07;4.57;;;6.60;77.30;;;;;;5093134;28;20223;-74
2021/03/20 08:32:05;;;;;;;5.73;5.33;;;6.70;75.90;;;;;;5092666;28;20585;-74
2021/03/20 08:35:10;;;;;;;5.72;4.65;;;6.70;75.70;;;;;;4974354;28;20513;-73
2021/03/20 08:38:13;;;;;;;4.80;4.32;;;6.80;75.70;;;;;;4989309;28;20594;-74
2021/03/20 08:40:47;;;;;;;4.87;4.47;;;6.70;77.00;;;;;;5090689;28;20188;-75
2021/03/20 08:43:25;;;;;;;4.93;4.63;;;6.80;76.50;;;;;;5092888;28;20372;-73
2021/03/20 08:46:28;;;;;;;4.37;4.07;;;6.50;73.50;;;;;;5092607;28;20443;-73
2021/03/20 08:49:23;;;;;;;6.05;4.57;;;6.50;75.00;;;;;;5092876;28;20550;-75
2021/03/20 08:51:57;;;;;;;4.27;3.97;;;6.40;73.30;;;;;;5093252;28;20183;-74
2021/03/20 08:54:44;;;;;;;5.90;4.20;;;6.50;75.50;;;;;;5092172;28;20400;-74
2021/03/20 08:57:25;;;;;;;4.90;4.50;;;6.50;74.10;;;;;;5092921;28;20460;-75
2021/03/20 08:59:55;;;;;;;5.60;5.20;;;6.50;75.10;;;;;;5093152;28;20154;-75
2021/03/20 09:02:24;;;;;;;4.93;4.60;;;6.70;74.20;;;;;;5093019;28;20390;-74
2021/03/20 09:05:01;;;;;;;5.00;4.65;;;6.80;75.60;;;;;;5092743;28;20418;-73
2021/03/20 09:07:50;;;;;;;4.43;4.10;;;6.80;74.20;;;;;;5091868;28;20239;-74
2021/03/20 09:10:39;;;;;;;4.40;4.00;;;6.90;73.50;;;;;;5091440;28;20793;-74
2021/03/20 09:13:17;;;;;;;4.60;4.27;;;7.10;72.10;;;;;;5095652;28;20394;-73
2021/03/20 09:16:14;;;;;;;4.30;3.90;;;7.10;71.90;;;;;;5096194;28;20374;-72
2021/03/20 09:18:41;;;;;;;6.10;5.50;;;7.00;71.00;;;;;;5056161;28;20754;-74
2021/03/20 09:21:09;;;;;;;4.87;4.47;;;7.10;71.20;;;;;;5096877;28;20404;-74
2021/03/20 09:23:49;;;;;;;6.13;4.40;;;7.30;68.80;;;;;;5096000;28;20411;-74
2021/03/20 09:26:41;;;;;;;4.13;3.83;;;7.50;68.10;;;;;;5096592;28;20396;-74
2021/03/20 09:29:14;;;;;;;4.67;4.27;;;7.50;68.50;;;;;;5096515;28;20393;-74
2021/03/20 09:31:46;;;;;;;4.53;3.90;;;7.70;65.90;;;;;;5095975;28;20395;-75
2021/03/20 09:34:20;;;;;;;4.73;4.30;;;7.90;67.00;;;;;;5078703;28;20413;-72
2021/03/20 09:36:49;;;;;;;3.60;3.30;;;8.00;64.20;;;;;;5095811;28;20405;-74
2021/03/20 09:39:37;;;;;;;3.83;3.50;;;8.20;64.20;;;;;;5096440;28;20917;-74
2021/03/20 09:42:04;;;;;;;3.90;3.60;;;8.50;64.00;;;;;;5096229;28;20459;-74
2021/03/20 09:44:34;;;;;;;3.50;3.30;;;8.80;62.60;;;;;;5095382;28;20890;-76
2021/03/20 09:47:00;;;;;;;3.60;3.40;;;8.90;59.00;;;;;;5096139;28;20940;-74
2021/03/20 09:49:26;;;;;;;3.53;3.30;;;9.00;57.20;;;;;;5095527;28;20813;-75
2021/03/20 09:51:54;;;;;;;3.30;3.10;;;9.20;56.10;;;;;;5095943;28;20418;-75
2021/03/20 09:57:05;;;;;;;4.10;3.83;;;9.20;55.40;;;;;;5095773;28;20410;-75
2021/03/20 09:59:32;;;;;;;3.57;3.27;;;9.50;56.40;;;;;;5095106;28;20386;-74
2021/03/20 10:02:00;;;;;;;4.13;3.83;;;9.70;56.50;;;;;;5095931;28;20411;-75
2021/03/20 10:04:29;;;;;;;4.57;4.17;;;9.80;55.70;;;;;;5095223;28;20411;-75
2021/03/20 10:07:18;;;;;;;5.07;3.50;;;9.90;55.20;;;;;;5095695;28;20421;-75
2021/03/20 10:10:10;;;;;;;4.40;4.10;;;9.80;56.80;;;;;;5095239;28;20399;-75
2021/03/20 10:12:42;;;;;;;4.17;3.87;;;10.20;56.20;;;;;;5076057;28;20416;-74
2021/03/20 10:15:18;;;;;;;3.90;3.70;;;10.30;57.80;;;;;;5095745;28;20409;-75
2021/03/20 10:18:05;;;;;;;3.90;3.60;;;10.40;54.00;;;;;;5095305;28;20539;-74
2021/03/20 10:20:36;;;;;;;5.13;4.00;;;10.20;51.90;;;;;;5095110;28;20393;-74
2021/03/20 10:23:11;;;;;;;4.37;4.07;;;10.20;53.00;;;;;;5095719;28;20464;-74
2021/03/20 10:25:49;;;;;;;3.47;3.27;;;10.30;52.90;;;;;;5094942;28;20389;-74
2021/03/20 10:28:15;;;;;;;3.80;3.60;;;10.50;52.80;;;;;;5095462;28;20503;-74
2021/03/20 10:31:02;;;;;;;4.70;4.30;;;10.60;52.10;;;;;;5094773;28;20470;-74
2021/03/20 10:33:34;;;;;;;4.07;3.77;;;10.60;51.70;;;;;;5076716;28;20379;-75
2021/03/20 10:36:08;;;;;;;4.17;3.87;;;10.70;51.30;;;;;;5077213;28;20461;-74
2021/03/20 10:38:33;;;;;;;3.80;3.60;;;10.70;51.00;;;;;;5094597;28;20422;-74
2021/03/20 10:41:05;;;;;;;4.20;3.90;;;10.60;51.60;;;;;;5095162;28;20400;-74
2021/03/20 10:43:37;;;;;;;3.87;3.57;;;10.50;51.90;;;;;;5094486;28;20172;-75
2021/03/20 10:46:03;;;;;;;5.23;4.73;;;10.50;51.00;;;;;;5094910;28;20451;-75
2021/03/20 10:48:29;;;;;;;3.80;3.57;;;10.20;48.40;;;;;;5094474;28;20434;-75
2021/03/20 10:51:00;;;;;;;6.30;5.70;;;10.00;51.00;;;;;;5076980;28;20422;-74
2021/03/20 10:53:30;;;;;;;3.90;3.60;;;10.00;50.00;;;;;;5095057;28;20165;-74
2021/03/20 10:55:58;;;;;;;4.00;3.70;;;10.00;49.80;;;;;;5094865;28;20870;-74
2021/03/20 10:58:37;;;;;;;3.80;3.53;;;10.00;49.00;;;;;;5094599;28;20753;-75
2021/03/20 11:01:03;;;;;;;4.40;4.10;;;10.00;50.90;;;;;;5094903;28;20489;-74
2021/03/20 11:03:33;;;;;;;4.90;4.50;;;9.50;51.10;;;;;;5094388;28;20501;-74
2021/03/20 11:06:08;;;;;;;3.93;3.63;;;9.30;53.00;;;;;;5076809;28;20437;-74
2021/03/20 11:08:34;;;;;;;4.07;3.87;;;9.50;50.60;;;;;;5093947;28;20446;-74
2021/03/20 11:11:09;;;;;;;3.93;3.53;;;9.60;51.50;;;;;;5094640;28;20394;-75
2021/03/20 11:13:41;;;;;;;3.20;3.00;;;9.70;51.80;;;;;;5093956;28;20880;-74
2021/03/20 11:16:18;;;;;;;3.33;3.03;;;9.90;50.70;;;;;;5094501;28;20391;-74
2021/03/20 11:18:48;;;;;;;3.87;3.67;;;9.90;51.00;;;;;;5093892;28;20728;-74
2021/03/20 11:21:22;;;;;;;3.07;2.93;;;10.10;50.60;;;;;;5094455;28;20398;-74
2021/03/20 11:23:57;;;;;;;3.87;3.50;;;10.20;50.40;;;;;;5093886;28;20391;-75
2021/03/20 11:26:23;;;;;;;4.20;3.80;;;10.30;51.90;;;;;;5076568;28;20416;-74
2021/03/20 11:28:50;;;;;;;3.53;3.33;;;10.40;50.80;;;;;;5093281;28;20935;-75
2021/03/20 11:31:17;;;;;;;3.20;3.00;;;10.60;51.40;;;;;;5094209;28;20166;-75
2021/03/20 11:33:44;;;;;;;3.57;3.37;;;10.90;51.80;;;;;;5075753;28;20419;-75
2021/03/20 11:36:17;;;;;;;3.30;3.00;;;11.00;50.40;;;;;;5093421;28;20415;-74
2021/03/20 11:38:43;;;;;;;3.60;3.30;;;11.30;50.30;;;;;;5093500;28;20384;-75
2021/03/20 11:41:12;;;;;;;5.50;3.20;;;11.50;47.30;;;;;;5094022;28;20452;-75
2021/03/20 11:43:58;;;;;;;4.37;3.83;;;11.70;43.90;;;;;;5093309;28;20410;-75
2021/03/20 11:46:30;;;;;;;3.97;3.67;;;11.90;44.70;;;;;;5093710;28;20460;-74
2021/03/20 11:49:03;;;;;;;4.30;3.90;;;12.10;48.30;;;;;;5093914;28;20514;-75
2021/03/20 11:51:41;;;;;;;3.80;3.50;;;12.30;49.90;;;;;;5094138;28;20409;-75
2021/03/20 11:54:25;;;;;;;3.87;3.67;;;12.60;45.30;;;;;;5076019;28;20446;-75
2021/03/20 11:57:00;;;;;;;3.50;3.30;;;12.90;43.70;;;;;;5093153;28;20404;-75
2021/03/20 11:59:37;;;;;;;3.97;3.70;;;13.00;43.10;;;;;;5093976;28;20390;-75
2021/03/20 12:02:05;;;;;;;3.33;3.13;;;13.10;43.20;;;;;;5093724;28;20392;-75
2021/03/20 12:04:33;;;;;;;3.73;3.53;;;13.20;41.30;;;;;;5093305;28;20512;-75
2021/03/20 12:07:31;;;;;;;3.83;3.50;;;13.30;41.70;;;;;;5093443;28;20466;-75
2021/03/20 12:10:13;;;;;;;3.80;3.13;;;13.20;42.10;;;;;;5037971;28;20417;-75
2021/03/20 12:12:50;;;;;;;5.53;3.30;;;13.20;42.10;;;;;;5092990;28;20391;-75
2021/03/20 12:15:51;;;;;;;3.57;3.37;;;13.30;42.00;;;;;;5075381;28;20412;-75
2021/03/20 12:18:22;;;;;;;4.63;3.80;;;13.50;37.90;;;;;;5093399;28;20391;-75
2021/03/20 12:20:48;;;;;;;3.40;3.10;;;13.50;39.10;;;;;;5092767;28;20390;-73
2021/03/20 12:23:25;;;;;;;4.93;3.80;;;13.50;39.30;;;;;;5093213;28;20517;-73
2021/03/20 12:25:54;;;;;;;3.97;3.57;;;13.60;40.00;;;;;;5092624;28;20408;-73
2021/03/20 12:28:39;;;;;;;4.20;3.87;;;13.70;39.10;;;;;;5093244;28;20451;-73
2021/03/20 12:31:14;;;;;;;4.20;3.90;;;13.70;38.00;;;;;;5074831;28;20867;-75
2021/03/20 12:34:23;;;;;;;3.37;3.20;;;13.60;40.20;;;;;;5092479;28;20398;-74
2021/03/20 12:36:51;;;;;;;3.73;3.53;;;13.50;37.00;;;;;;5059247;28;20483;-74
2021/03/20 12:39:24;;;;;;;4.10;3.90;;;13.40;39.10;;;;;;5093021;28;20395;-75
2021/03/20 12:41:53;;;;;;;3.90;3.60;;;13.20;40.80;;;;;;5092382;28;20395;-74
2021/03/20 12:44:31;;;;;;;3.77;3.57;;;13.10;38.50;;;;;;5074919;28;20398;-74
2021/03/20 12:47:03;;;;;;;4.17;3.97;;;13.10;38.60;;;;;;5091407;28;20453;-75
2021/03/20 12:49:35;;;;;;;3.80;3.60;;;13.20;38.20;;;;;;5092457;28;20426;-75
2021/03/20 12:52:10;;;;;;;3.97;3.67;;;13.20;38.30;;;;;;5093004;28;20482;-74
2021/03/20 12:54:43;;;;;;;3.70;3.50;;;13.30;41.20;;;;;;5092272;28;20383;-74
2021/03/20 12:57:27;;;;;;;4.37;4.00;;;13.20;43.10;;;;;;5093069;28;20383;-75
2021/03/20 12:59:52;;;;;;;4.90;4.50;;;13.20;39.90;;;;;;5091911;28;20463;-75
2021/03/20 13:02:20;;;;;;;4.23;3.83;;;12.90;39.50;;;;;;5074794;28;20490;-73
2021/03/20 13:04:47;;;;;;;4.37;4.13;;;12.90;38.20;;;;;;5091959;28;20257;-75
2021/03/20 13:07:13;;;;;;;4.20;3.90;;;12.80;38.30;;;;;;5092605;28;20461;-75
2021/03/20 13:09:40;;;;;;;4.10;3.73;;;12.70;38.60;;;;;;5091832;28;20419;-74
2021/03/20 13:12:08;;;;;;;5.00;4.70;;;12.60;40.30;;;;;;5093023;28;20439;-74
2021/03/20 13:14:34;;;;;;;4.67;4.37;;;12.60;40.40;;;;;;5074255;28;20866;-75
2021/03/20 13:17:04;;;;;;;3.83;3.60;;;12.60;41.20;;;;;;5092043;28;20467;-74
2021/03/20 13:19:29;;;;;;;3.83;3.63;;;12.60;38.50;;;;;;5092741;28;20705;-74
2021/03/20 13:21:56;;;;;;;4.20;3.90;;;12.60;37.10;;;;;;5091954;28;20537;-74
2021/03/20 13:24:22;;;;;;;3.73;3.43;;;12.60;38.60;;;;;;5092692;28;20440;-74
2021/03/20 13:26:48;;;;;;;4.10;3.80;;;12.50;38.40;;;;;;5091945;28;20405;-74
2021/03/20 13:29:14;;;;;;;4.23;3.93;;;12.50;39.20;;;;;;5092447;28;20806;-74
2021/03/20 13:31:40;;;;;;;4.60;4.20;;;12.50;38.10;;;;;;5092168;28;20202;-74
2021/03/20 13:34:06;;;;;;;4.27;3.97;;;12.50;40.00;;;;;;5074363;28;20474;-75
2021/03/20 13:36:32;;;;;;;4.27;3.97;;;12.40;40.40;;;;;;5092803;28;20881;-75
2021/03/20 13:38:58;;;;;;;4.60;4.20;;;12.40;40.90;;;;;;5091837;28;20269;-73
2021/03/20 13:41:23;;;;;;;4.37;4.00;;;12.20;41.80;;;;;;5092464;28;20167;-74